| time (UTC) | temp C | wind direction | speed KPH | gust KPH | rain 1hr cm | rain 24hr cm | rain mn cm | humidity % | barometer mb |
| 20260507111525 | 10 | 0.0 | 0.0 | 0.00 | 0.00 | 0.00 | 81 | 1021.3 | |
| 20260507110524 | 10 | 167 | 0.0 | 1.6 | 0.00 | 0.00 | 0.00 | 81 | 1021.3 |
| 20260507105522 | 10 | 216 | 0.0 | 1.6 | 0.00 | 0.00 | 0.00 | 81 | 1021.3 |
| 20260507104521 | 10 | 175 | 0.0 | 3.2 | 0.00 | 0.00 | 0.00 | 81 | 1021.3 |
| 20260507103519 | 10 | 143 | 1.6 | 3.2 | 0.00 | 0.00 | 0.00 | 81 | 1021.4 |
| 20260507102537 | 10 | 150 | 1.6 | 1.6 | 0.00 | 0.00 | 0.00 | 82 | 1021.4 |
| 20260507101615 | 10 | 0.0 | 0.0 | 0.00 | 0.00 | 0.00 | 82 | 1021.3 | |
| 20260507100614 | 11 | 0.0 | 0.0 | 0.00 | 0.00 | 0.00 | 82 | 1021.4 | |
| 20260507095632 | 11 | 142 | 0.0 | 1.6 | 0.00 | 0.00 | 0.00 | 82 | 1021.3 |
| 20260507094610 | 11 | 187 | 0.0 | 1.6 | 0.00 | 0.00 | 0.00 | 82 | 1021.2 |
| 20260507093649 | 11 | 227 | 1.6 | 3.2 | 0.00 | 0.00 | 0.00 | 82 | 1021.2 |
| 20260507092607 | 11 | 237 | 0.0 | 3.2 | 0.00 | 0.00 | 0.00 | 82 | 1021.4 |
| 20260507091625 | 11 | 223 | 1.6 | 4.8 | 0.00 | 0.00 | 0.00 | 82 | 1021.3 |
| 20260507090603 | 11 | 228 | 1.6 | 4.8 | 0.00 | 0.00 | 0.00 | 83 | 1021.3 |
| 20260507085601 | 11 | 216 | 0.0 | 3.2 | 0.00 | 0.00 | 0.00 | 84 | 1021.4 |
| 20260507084600 | 11 | 224 | 1.6 | 4.8 | 0.00 | 0.00 | 0.00 | 84 | 1021.3 |
| 20260507083559 | 11 | 223 | 3.2 | 6.4 | 0.00 | 0.00 | 0.00 | 84 | 1021.4 |
| 20260507082557 | 11 | 243 | 0.0 | 1.6 | 0.00 | 0.00 | 0.00 | 84 | 1021.4 |
| 20260507081555 | 11 | 215 | 1.6 | 3.2 | 0.00 | 0.00 | 0.00 | 85 | 1021.4 |
| 20260507080553 | 11 | 221 | 1.6 | 4.8 | 0.00 | 0.00 | 0.00 | 85 | 1021.4 |
| 20260507075552 | 11 | 215 | 1.6 | 6.4 | 0.00 | 0.00 | 0.00 | 86 | 1021.4 |
| 20260507074550 | 11 | 218 | 0.0 | 3.2 | 0.00 | 0.00 | 0.00 | 86 | 1021.5 |
| 20260507073548 | 11 | 222 | 1.6 | 4.8 | 0.00 | 0.00 | 0.00 | 86 | 1021.4 |
| 20260507072546 | 11 | 176 | 1.6 | 3.2 | 0.00 | 0.00 | 0.00 | 86 | 1021.4 |
| 20260507071545 | 11 | 238 | 3.2 | 6.4 | 0.00 | 0.00 | 0.00 | 86 | 1021.5 |
| 20260507070542 | 11 | 223 | 1.6 | 4.8 | 0.00 | 0.00 | 0.00 | 86 | 1021.4 |
| 20260507065601 | 11 | 219 | 1.6 | 6.4 | 0.00 | 0.00 | 0.00 | 86 | 1021.4 |
| 20260507064539 | 11 | 247 | 3.2 | 6.4 | 0.00 | 0.00 | 0.00 | 86 | 1021.4 |
| 20260507063537 | 11 | 237 | 3.2 | 9.7 | 0.00 | 0.00 | 0.00 | 85 | 1021.3 |
| 20260507062536 | 11 | 231 | 1.6 | 4.8 | 0.00 | 0.00 | 0.00 | 85 | 1021.4 |
| 20260507061535 | 11 | 226 | 3.2 | 6.4 | 0.00 | 0.00 | 0.00 | 85 | 1021.5 |
| 20260507060532 | 11 | 246 | 1.6 | 4.8 | 0.00 | 0.00 | 0.00 | 84 | 1021.5 |
| 20260507055530 | 11 | 219 | 1.6 | 3.2 | 0.00 | 0.00 | 0.00 | 83 | 1021.5 |
| 20260507054529 | 11 | 249 | 4.8 | 9.7 | 0.00 | 0.00 | 0.00 | 83 | 1021.4 |
| 20260507053548 | 11 | 244 | 4.8 | 6.4 | 0.00 | 0.00 | 0.00 | 82 | 1021.4 |
| 20260507052526 | 12 | 246 | 4.8 | 6.4 | 0.00 | 0.00 | 0.00 | 81 | 1021.6 |
| 20260507051524 | 12 | 263 | 1.6 | 9.7 | 0.00 | 0.00 | 0.00 | 80 | 1021.4 |
| 20260507050522 | 12 | 250 | 3.2 | 6.4 | 0.00 | 0.00 | 0.00 | 79 | 1021.5 |
| 20260507045520 | 12 | 253 | 4.8 | 11.3 | 0.00 | 0.00 | 0.00 | 79 | 1021.4 |
| 20260507044519 | 12 | 255 | 3.2 | 9.7 | 0.00 | 0.00 | 0.00 | 78 | 1021.2 |
| 20260507043516 | 12 | 259 | 4.8 | 9.7 | 0.00 | 0.00 | 0.00 | 78 | 1021.2 |
| 20260507042615 | 12 | 239 | 3.2 | 6.4 | 0.00 | 0.00 | 0.00 | 77 | 1021.4 |
| 20260507041654 | 12 | 244 | 0.0 | 3.2 | 0.00 | 0.00 | 0.00 | 77 | 1021.4 |
| 20260507040611 | 12 | 254 | 1.6 | 4.8 | 0.00 | 0.00 | 0.00 | 77 | 1021.3 |
| 20260507035610 | 12 | 255 | 3.2 | 6.4 | 0.00 | 0.00 | 0.00 | 77 | 1021.1 |
| 20260507034609 | 12 | 255 | 3.2 | 9.7 | 0.00 | 0.00 | 0.00 | 77 | 1021.1 |
| 20260507033606 | 12 | 243 | 3.2 | 9.7 | 0.00 | 0.00 | 0.00 | 76 | 1020.9 |
| 20260507032605 | 13 | 248 | 3.2 | 9.7 | 0.00 | 0.00 | 0.00 | 76 | 1021.0 |
| 20260507031603 | 13 | 248 | 3.2 | 6.4 | 0.00 | 0.00 | 0.00 | 76 | 1020.8 |
| 20260507030601 | 13 | 241 | 6.4 | 14.5 | 0.00 | 0.00 | 0.00 | 75 | 1020.7 |
| 20260507025559 | 13 | 237 | 4.8 | 11.3 | 0.00 | 0.00 | 0.00 | 75 | 1020.7 |
| 20260507024558 | 13 | 272 | 3.2 | 11.3 | 0.00 | 0.00 | 0.00 | 74 | 1020.6 |
| 20260507023636 | 13 | 279 | 3.2 | 9.7 | 0.00 | 0.00 | 0.00 | 74 | 1020.6 |
| 20260507022554 | 13 | 245 | 4.8 | 9.7 | 0.00 | 0.00 | 0.00 | 73 | 1020.5 |
| 20260507021553 | 14 | 248 | 4.8 | 12.9 | 0.00 | 0.00 | 0.00 | 72 | 1020.6 |
| 20260507020551 | 14 | 256 | 6.4 | 12.9 | 0.00 | 0.00 | 0.00 | 72 | 1020.6 |
| 20260507015549 | 14 | 246 | 4.8 | 11.3 | 0.00 | 0.00 | 0.00 | 71 | 1020.6 |
| 20260507014548 | 15 | 242 | 4.8 | 12.9 | 0.00 | 0.00 | 0.00 | 71 | 1020.5 |
| 20260507013546 | 15 | 234 | 8.0 | 14.5 | 0.00 | 0.00 | 0.00 | 70 | 1020.6 |
| 20260507012604 | 15 | 247 | 4.8 | 11.3 | 0.00 | 0.00 | 0.00 | 71 | 1020.6 |
| 20260507011542 | 15 | 267 | 4.8 | 11.3 | 0.00 | 0.00 | 0.00 | 70 | 1020.5 |
| 20260507010541 | 15 | 241 | 1.6 | 11.3 | 0.00 | 0.00 | 0.00 | 69 | 1020.4 |
| 20260507005559 | 16 | 245 | 6.4 | 11.3 | 0.00 | 0.00 | 0.00 | 69 | 1020.6 |
| 20260507004557 | 16 | 267 | 3.2 | 9.7 | 0.00 | 0.00 | 0.00 | 69 | 1020.6 |
| 20260507003555 | 16 | 250 | 4.8 | 6.4 | 0.00 | 0.00 | 0.00 | 69 | 1020.6 |
| 20260507002534 | 16 | 251 | 3.2 | 9.7 | 0.00 | 0.00 | 0.00 | 68 | 1020.5 |
| 20260507001532 | 16 | 247 | 8.0 | 20.9 | 0.00 | 0.00 | 0.00 | 68 | 1020.6 |
| 20260507000531 | 16 | 233 | 4.8 | 11.3 | 0.00 | 0.00 | 0.00 | 66 | 1020.6 |
| 20260506235528 | 16 | 253 | 4.8 | 9.7 | 0.00 | 0.00 | 0.00 | 66 | 1020.6 |
| 20260506234527 | 17 | 262 | 4.8 | 11.3 | 0.00 | 0.00 | 0.00 | 65 | 1020.5 |
| 20260506233545 | 17 | 259 | 4.8 | 12.9 | 0.00 | 0.00 | 0.00 | 62 | 1020.6 |
| 20260506232524 | 18 | 255 | 6.4 | 11.3 | 0.00 | 0.00 | 0.00 | 63 | 1020.6 |
| 20260506231522 | 17 | 239 | 6.4 | 12.9 | 0.00 | 0.00 | 0.00 | 64 | 1020.6 |
| 20260506230520 | 17 | 247 | 6.4 | 14.5 | 0.00 | 0.00 | 0.00 | 64 | 1020.6 |
| 20260506225519 | 17 | 250 | 4.8 | 11.3 | 0.00 | 0.00 | 0.00 | 63 | 1020.7 |
| 20260506224517 | 18 | 244 | 6.4 | 11.3 | 0.00 | 0.00 | 0.00 | 64 | 1020.7 |
| 20260506223615 | 18 | 236 | 8.0 | 14.5 | 0.00 | 0.00 | 0.00 | 64 | 1020.7 |
| 20260506222613 | 17 | 253 | 4.8 | 11.3 | 0.00 | 0.00 | 0.00 | 64 | 1020.9 |
| 20260506221632 | 18 | 233 | 8.0 | 17.7 | 0.00 | 0.00 | 0.00 | 64 | 1021.0 |
| 20260506220610 | 17 | 233 | 4.8 | 9.7 | 0.00 | 0.00 | 0.00 | 66 | 1020.9 |
| 20260506215608 | 17 | 250 | 8.0 | 16.1 | 0.00 | 0.00 | 0.00 | 66 | 1020.9 |
| 20260506214606 | 17 | 256 | 4.8 | 11.3 | 0.00 | 0.00 | 0.00 | 67 | 1021.0 |
| 20260506213605 | 16 | 249 | 4.8 | 12.9 | 0.00 | 0.00 | 0.00 | 67 | 1021.0 |
| 20260506212603 | 16 | 270 | 3.2 | 9.7 | 0.00 | 0.00 | 0.00 | 67 | 1021.0 |
| 20260506211621 | 16 | 270 | 3.2 | 11.3 | 0.00 | 0.00 | 0.00 | 69 | 1020.9 |
| 20260506210600 | 16 | 258 | 3.2 | 11.3 | 0.00 | 0.00 | 0.00 | 69 | 1021.0 |
| 20260506205558 | 16 | 236 | 4.8 | 9.7 | 0.00 | 0.00 | 0.00 | 69 | 1020.9 |
| 20260506204556 | 16 | 260 | 3.2 | 11.3 | 0.00 | 0.00 | 0.00 | 68 | 1020.9 |
| 20260506203555 | 16 | 268 | 1.6 | 4.8 | 0.00 | 0.00 | 0.00 | 70 | 1020.9 |
| 20260506202553 | 16 | 231 | 3.2 | 6.4 | 0.00 | 0.00 | 0.00 | 69 | 1020.7 |
| 20260506201651 | 16 | 264 | 4.8 | 9.7 | 0.00 | 0.00 | 0.00 | 70 | 1020.7 |
| 20260506200549 | 16 | 246 | 4.8 | 11.3 | 0.00 | 0.00 | 0.00 | 70 | 1020.7 |
| 20260506195548 | 16 | 269 | 6.4 | 12.9 | 0.00 | 0.00 | 0.00 | 69 | 1020.7 |
| 20260506194546 | 16 | 262 | 8.0 | 17.7 | 0.00 | 0.00 | 0.00 | 70 | 1020.5 |
| 20260506193544 | 16 | 233 | 6.4 | 14.5 | 0.00 | 0.00 | 0.00 | 71 | 1020.5 |
| 20260506192543 | 16 | 264 | 3.2 | 6.4 | 0.00 | 0.00 | 0.00 | 72 | 1020.5 |
| 20260506191542 | 15 | 229 | 6.4 | 14.5 | 0.00 | 0.00 | 0.00 | 74 | 1020.5 |
| 20260506190539 | 15 | 214 | 3.2 | 11.3 | 0.00 | 0.00 | 0.00 | 75 | 1020.5 |
| 20260506185538 | 15 | 238 | 1.6 | 3.2 | 0.00 | 0.00 | 0.00 | 76 | 1020.5 |
| 20260506184556 | 14 | 239 | 1.6 | 3.2 | 0.00 | 0.00 | 0.00 | 75 | 1020.6 |
| 20260506183534 | 15 | 270 | 1.6 | 4.8 | 0.00 | 0.00 | 0.00 | 74 | 1020.6 |
| 20260506182533 | 15 | 214 | 4.8 | 12.9 | 0.00 | 0.00 | 0.00 | 75 | 1020.5 |
| 20260506181531 | 15 | 199 | 3.2 | 6.4 | 0.00 | 0.00 | 0.00 | 77 | 1020.4 |
| 20260506180529 | 15 | 235 | 1.6 | 6.4 | 0.00 | 0.00 | 0.00 | 77 | 1020.3 |
| 20260506175528 | 14 | 260 | 1.6 | 6.4 | 0.00 | 0.00 | 0.00 | 77 | 1020.4 |
| 20260506174526 | 14 | 285 | 1.6 | 6.4 | 0.00 | 0.00 | 0.00 | 76 | 1020.4 |
| 20260506173524 | 15 | 261 | 0.0 | 3.2 | 0.00 | 0.00 | 0.00 | 77 | 1020.3 |
| 20260506172542 | 14 | 231 | 3.2 | 12.9 | 0.00 | 0.00 | 0.00 | 78 | 1020.4 |
| 20260506171541 | 14 | 228 | 4.8 | 11.3 | 0.00 | 0.00 | 0.00 | 78 | 1020.4 |
| 20260506170519 | 13 | 219 | 6.4 | 12.9 | 0.00 | 0.00 | 0.00 | 78 | 1020.3 |
| 20260506165539 | 13 | 183 | 6.4 | 11.3 | 0.00 | 0.00 | 0.00 | 78 | 1020.3 |
| 20260506164516 | 13 | 240 | 6.4 | 14.5 | 0.00 | 0.00 | 0.00 | 79 | 1020.3 |
| 20260506163619 | 13 | 242 | 6.4 | 12.9 | 0.00 | 0.00 | 0.00 | 79 | 1020.0 |
| 20260506162613 | 13 | 244 | 6.4 | 11.3 | 0.00 | 0.00 | 0.00 | 80 | 1020.0 |
| 20260506161611 | 13 | 200 | 3.2 | 6.4 | 0.00 | 0.00 | 0.00 | 82 | 1019.9 |
| 20260506160609 | 13 | 229 | 3.2 | 4.8 | 0.00 | 0.00 | 0.00 | 82 | 1020.1 |
| 20260506155608 | 12 | 230 | 4.8 | 9.7 | 0.00 | 0.00 | 0.00 | 83 | 1020.1 |
| 20260506154606 | 12 | 236 | 1.6 | 4.8 | 0.00 | 0.00 | 0.00 | 83 | 1020.1 |
| 20260506153604 | 12 | 235 | 3.2 | 9.7 | 0.00 | 0.00 | 0.00 | 84 | 1020.1 |
| 20260506152602 | 12 | 215 | 1.6 | 4.8 | 0.00 | 0.00 | 0.00 | 85 | 1019.9 |
| 20260506151621 | 12 | 227 | 1.6 | 3.2 | 0.00 | 0.00 | 0.00 | 85 | 1019.8 |
| 20260506150559 | 12 | 217 | 1.6 | 4.8 | 0.00 | 0.00 | 0.00 | 85 | 1020.0 |
| 20260506145618 | 12 | 225 | 3.2 | 9.7 | 0.00 | 0.00 | 0.00 | 85 | 1020.0 |
| 20260506144556 | 12 | 227 | 3.2 | 6.4 | 0.00 | 0.00 | 0.00 | 85 | 1020.0 |
| 20260506143554 | 12 | 228 | 4.8 | 12.9 | 0.00 | 0.00 | 0.00 | 85 | 1019.8 |
| 20260506142552 | 12 | 220 | 1.6 | 4.8 | 0.00 | 0.00 | 0.00 | 86 | 1019.6 |
| 20260506141552 | 12 | 223 | 3.2 | 6.4 | 0.00 | 0.00 | 0.00 | 86 | 1019.7 |
| 20260506140549 | 12 | 199 | 1.6 | 6.4 | 0.00 | 0.00 | 0.00 | 86 | 1019.7 |
| 20260506135548 | 11 | 229 | 3.2 | 6.4 | 0.00 | 0.00 | 0.00 | 86 | 1019.6 |
| 20260506134546 | 11 | 252 | 1.6 | 4.8 | 0.00 | 0.00 | 0.00 | 86 | 1019.8 |
| 20260506133543 | 11 | 235 | 3.2 | 6.4 | 0.00 | 0.00 | 0.00 | 86 | 1019.6 |
| 20260506132542 | 11 | 228 | 4.8 | 11.3 | 0.00 | 0.00 | 0.00 | 86 | 1019.5 |
| 20260506131601 | 11 | 231 | 4.8 | 9.7 | 0.00 | 0.00 | 0.00 | 86 | 1019.3 |
| 20260506130539 | 11 | 232 | 3.2 | 6.4 | 0.00 | 0.00 | 0.00 | 86 | 1019.2 |
| 20260506125537 | 11 | 232 | 3.2 | 6.4 | 0.00 | 0.00 | 0.00 | 86 | 1019.3 |
| 20260506124536 | 11 | 235 | 3.2 | 6.4 | 0.00 | 0.00 | 0.00 | 86 | 1019.2 |
| 20260506123533 | 11 | 202 | 4.8 | 6.4 | 0.00 | 0.00 | 0.00 | 87 | 1018.9 |
| 20260506122531 | 11 | 178 | 1.6 | 3.2 | 0.00 | 0.00 | 0.00 | 87 | 1019.1 |
| 20260506121550 | 11 | 222 | 0.0 | 1.6 | 0.00 | 0.00 | 0.00 | 87 | 1019.1 |
| 20260506120528 | 11 | 0.0 | 0.0 | 0.00 | 0.00 | 0.00 | 87 | 1019.0 | |
| 20260506115527 | 11 | 224 | 0.0 | 1.6 | 0.00 | 0.00 | 0.00 | 87 | 1018.8 |
| 20260506114525 | 11 | 0.0 | 0.0 | 0.00 | 0.00 | 0.00 | 86 | 1018.7 | |
| 20260506113523 | 11 | 215 | 1.6 | 4.8 | 0.00 | 0.00 | 0.00 | 86 | 1018.7 |
| 20260506112541 | 11 | 243 | 1.6 | 4.8 | 0.00 | 0.00 | 0.00 | 86 | 1018.9 |